Time;durP1;ratioP1;P1;durP2;ratioP2;P2;SDS_P1;SDS_P2;PMS_P1;PMS_P2;Temp;Humidity;BMP_temperature;BMP_pressure;BME280_temperature;BME280_humidity;BME280_pressure;Samples;Min_cycle;Max_cycle;Signal;HPM_P1;HPM_P2
2022/07/20 00:01:02;;;;;;;3.40;1.20;;;;;;;;;;5111341;27;20424;-71
2022/07/20 00:03:29;;;;;;;3.55;1.80;;;;;;;;;;5111430;28;20051;-72
2022/07/20 00:05:55;;;;;;;2.85;1.73;;;;;;;;;;5127156;28;20047;-71
2022/07/20 00:13:16;;;;;;;4.63;1.48;;;;;;;;;;5111767;27;20401;-72
2022/07/20 00:17:38;;;;;;;1.58;1.20;;;;;;;;;;5112184;27;20828;-71
2022/07/20 00:21:27;;;;;;;4.68;1.80;;;;;;;;;;5111520;27;20462;-72
2022/07/20 00:26:58;;;;;;;2.78;1.48;;;;;;;;;;5112216;27;20396;-72
2022/07/20 00:32:45;;;;;;;2.78;1.50;;;;;;;;;;5112205;27;20469;-72
2022/07/20 00:35:12;;;;;;;3.42;1.40;;;;;;;;;;5110075;28;20441;-72
2022/07/20 00:37:39;;;;;;;5.57;1.88;;;;;;;;;;5109629;28;20085;-72
2022/07/20 00:40:06;;;;;;;2.13;1.30;;;;;;;;;;5111239;28;20053;-72
2022/07/20 00:42:32;;;;;;;4.10;1.80;;;;;;;;;;5109512;28;20028;-73
2022/07/20 00:46:30;;;;;;;2.83;1.52;;;;;;;;;;5111619;27;20396;-73
2022/07/20 00:51:50;;;;;;;2.15;1.58;;;;;;;;;;5111879;27;20388;-72
2022/07/20 00:54:16;;;;;;;3.53;1.70;;;;;;;;;;5111392;28;20031;-72
2022/07/20 00:56:43;;;;;;;3.05;1.45;;;;;;;;;;5110890;28;20034;-72
2022/07/20 00:59:10;;;;;;;2.47;1.20;;;;;;;;;;5111248;28;20032;-72
2022/07/20 01:06:41;;;;;;;1.77;1.30;;;;;;;;;;5111862;27;20389;-72
2022/07/20 01:12:16;;;;;;;4.30;1.42;;;;;;;;;;5111152;27;20804;-71
2022/07/20 01:16:04;;;;;;;2.00;1.20;;;;;;;;;;5111830;27;20462;-72
2022/07/20 01:19:14;;;;;;;3.42;2.17;;;;;;;;;;5111203;27;20446;-71
2022/07/20 01:21:43;;;;;;;2.67;1.70;;;;;;;;;;5110099;28;20135;-72
2022/07/20 01:24:34;;;;;;;2.47;1.33;;;;;;;;;;5111619;27;20784;-72
2022/07/20 01:27:21;;;;;;;2.95;1.77;;;;;;;;;;5112132;27;20402;-71
2022/07/20 01:30:23;;;;;;;5.75;1.80;;;;;;;;;;5111573;27;20457;-72
2022/07/20 01:32:49;;;;;;;2.45;1.45;;;;;;;;;;5126859;28;20023;-72
2022/07/20 01:36:25;;;;;;;2.13;1.40;;;;;;;;;;5112052;27;20854;-72
2022/07/20 01:38:52;;;;;;;2.75;1.60;;;;;;;;;;5110988;28;20036;-71
2022/07/20 01:41:18;;;;;;;4.90;1.65;;;;;;;;;;5111292;28;20550;-71
2022/07/20 01:43:44;;;;;;;3.20;1.40;;;;;;;;;;5111325;28;20024;-72
2022/07/20 01:46:10;;;;;;;2.50;1.52;;;;;;;;;;5110887;28;20099;-71
2022/07/20 01:48:36;;;;;;;2.17;1.55;;;;;;;;;;5111210;28;20024;-72
2022/07/20 01:51:43;;;;;;;2.63;1.45;;;;;;;;;;5086838;27;20391;-72
2022/07/20 02:00:23;;;;;;;4.35;1.88;;;;;;;;;;5111180;27;20396;-72
2022/07/20 02:04:31;;;;;;;3.85;1.50;;;;;;;;;;5111703;27;20400;-72
2022/07/20 02:09:03;;;;;;;2.80;1.50;;;;;;;;;;5111504;27;20472;-72
2022/07/20 02:11:53;;;;;;;3.65;1.65;;;;;;;;;;5111818;27;20783;-71
2022/07/20 02:14:19;;;;;;;2.72;1.75;;;;;;;;;;5109644;28;20024;-72
2022/07/20 02:19:02;;;;;;;2.88;1.70;;;;;;;;;;5111843;27;20469;-73
2022/07/20 02:21:29;;;;;;;4.00;1.65;;;;;;;;;;5111159;28;20039;-72
2022/07/20 02:23:55;;;;;;;1053.68;513.97;;;;;;;;;;5111301;28;20078;-73
2022/07/20 02:29:40;;;;;;;1071.80;518.70;;;;;;;;;;5111226;27;20458;-72
2022/07/20 02:32:06;;;;;;;1132.85;523.85;;;;;;;;;;5111409;28;20046;-72
2022/07/20 02:34:32;;;;;;;1137.88;553.42;;;;;;;;;;5111297;28;20488;-72
2022/07/20 02:38:06;;;;;;;1158.90;549.30;;;;;;;;;;5111454;27;20822;-73
2022/07/20 02:42:29;;;;;;;1150.43;568.83;;;;;;;;;;5111566;27;20397;-72
2022/07/20 02:45:43;;;;;;;1167.85;544.10;;;;;;;;;;5050991;28;20385;-72
2022/07/20 02:48:10;;;;;;;1161.35;557.92;;;;;;;;;;5050782;28;20029;-72
2022/07/20 02:50:38;;;;;;;1185.95;536.80;;;;;;;;;;5049072;28;20032;-72
2022/07/20 02:58:13;;;;;;;1201.43;525.70;;;;;;;;;;5111198;27;20440;-74
2022/07/20 03:01:36;;;;;;;1225.30;501.35;;;;;;;;;;5111713;27;21007;-73
2022/07/20 03:06:00;;;;;;;1171.75;468.17;;;;;;;;;;5111542;27;20453;-72
2022/07/20 03:08:26;;;;;;;1228.28;483.10;;;;;;;;;;5110053;28;20028;-72
2022/07/20 03:10:52;;;;;;;1229.18;468.15;;;;;;;;;;5110930;28;20020;-72
2022/07/20 03:13:18;;;;;;;1272.65;480.52;;;;;;;;;;5109971;28;20027;-72
2022/07/20 03:15:45;;;;;;;1245.15;478.98;;;;;;;;;;5111192;28;20418;-72
2022/07/20 03:18:33;;;;;;;1233.72;491.48;;;;;;;;;;5131579;27;20472;-72
2022/07/20 03:23:24;;;;;;;1257.80;459.55;;;;;;;;;;5111551;27;20392;-72
2022/07/20 03:25:50;;;;;;;1243.13;472.73;;;;;;;;;;5109645;28;20030;-73
2022/07/20 03:28:18;;;;;;;1262.18;465.30;;;;;;;;;;5111354;28;20047;-72
2022/07/20 03:34:16;;;;;;;1211.57;500.55;;;;;;;;;;5111838;27;20388;-72
2022/07/20 03:36:42;;;;;;;1232.97;491.83;;;;;;;;;;5110046;28;20028;-72
2022/07/20 03:39:08;;;;;;;1274.15;471.23;;;;;;;;;;5109637;28;20024;-72
2022/07/20 03:41:34;;;;;;;1249.13;461.92;;;;;;;;;;5109998;28;20567;-72
2022/07/20 03:44:01;;;;;;;1243.15;476.63;;;;;;;;;;5111186;28;20024;-72
2022/07/20 03:46:27;;;;;;;1248.90;482.20;;;;;;;;;;5110792;28;20429;-72
2022/07/20 03:48:53;;;;;;;1235.25;482.08;;;;;;;;;;5109819;28;20511;-72
2022/07/20 03:53:17;;;;;;;1253.53;483.58;;;;;;;;;;5173167;27;20310;-72
2022/07/20 03:56:47;;;;;;;1259.28;444.63;;;;;;;;;;5112195;27;20396;-72
2022/07/20 03:59:13;;;;;;;1244.78;454.52;;;;;;;;;;5111292;28;20030;-73
2022/07/20 04:02:06;;;;;;;1229.60;446.98;;;;;;;;;;5111644;27;20416;-73
2022/07/20 04:04:32;;;;;;;1249.53;439.63;;;;;;;;;;5111402;28;20032;-72
2022/07/20 04:09:55;;;;;;;1200.70;505.27;;;;;;;;;;5112065;27;20393;-72
2022/07/20 04:15:56;;;;;;;1274.53;459.23;;;;;;;;;;5112028;27;20424;-73
2022/07/20 04:20:22;;;;;;;1240.15;441.80;;;;;;;;;;5070552;28;20392;-72
2022/07/20 04:24:24;;;;;;;1261.00;454.80;;;;;;;;;;5173682;27;20727;-72
2022/07/20 04:28:08;;;;;;;1208.95;453.52;;;;;;;;;;5111485;27;20427;-74
2022/07/20 04:30:45;;;;;;;1224.68;470.30;;;;;;;;;;5111438;27;20310;-72
2022/07/20 04:33:11;;;;;;;1174.05;480.02;;;;;;;;;;5089552;28;20031;-72
2022/07/20 04:39:49;;;;;;;1146.07;475.45;;;;;;;;;;5111814;27;20316;-73
2022/07/20 04:45:17;;;;;;;1203.13;502.65;;;;;;;;;;5112173;27;20458;-73
2022/07/20 04:49:03;;;;;;;1243.22;490.00;;;;;;;;;;5110972;27;20404;-72
2022/07/20 04:51:29;;;;;;;1213.63;461.95;;;;;;;;;;5110064;28;20028;-72
2022/07/20 04:53:55;;;;;;;1233.22;476.52;;;;;;;;;;5109964;28;20388;-73
2022/07/20 04:56:21;;;;;;;1218.47;466.85;;;;;;;;;;5110956;28;20095;-72
2022/07/20 04:58:50;;;;;;;1242.07;465.30;;;;;;;;;;5111321;28;20047;-72
2022/07/20 05:02:17;;;;;;;1207.50;472.55;;;;;;;;;;5111552;27;20397;-73
2022/07/20 05:05:26;;;;;;;1162.35;464.20;;;;;;;;;;5111607;27;20388;-72
2022/07/20 05:09:27;;;;;;;1120.95;485.45;;;;;;;;;;5110587;27;20314;-77
2022/07/20 05:11:54;;;;;;;1128.65;494.98;;;;;;;;;;5090629;28;20039;-76
2022/07/20 05:14:20;;;;;;;1181.53;492.40;;;;;;;;;;5089573;28;20031;-74
2022/07/20 05:17:26;;;;;;;1163.82;473.75;;;;;;;;;;5111743;27;20973;-75
2022/07/20 05:19:53;;;;;;;1173.70;470.98;;;;;;;;;;5111358;28;20020;-75
2022/07/20 05:22:19;;;;;;;1203.00;454.80;;;;;;;;;;5110033;28;20024;-75
2022/07/20 05:24:45;;;;;;;1113.75;485.45;;;;;;;;;;5109595;28;20024;-76
2022/07/20 05:27:11;;;;;;;1082.40;486.20;;;;;;;;;;5110003;28;20026;-75
2022/07/20 05:29:37;;;;;;;1049.20;499.42;;;;;;;;;;5111320;28;20023;-76
2022/07/20 05:32:03;;;;;;;1131.07;475.45;;;;;;;;;;5110831;28;20502;-76
2022/07/20 05:34:29;;;;;;;1079.63;507.30;;;;;;;;;;5111024;28;20484;-76
2022/07/20 05:36:56;;;;;;;988.40;525.17;;;;;;;;;;5111265;28;20028;-75
2022/07/20 05:39:22;;;;;;;1099.30;518.00;;;;;;;;;;5108082;28;20019;-75
2022/07/20 05:43:19;;;;;;;1149.68;487.52;;;;;;;;;;5111723;27;20458;-78
2022/07/20 05:45:45;;;;;;;1143.70;502.05;;;;;;;;;;5110619;28;20027;-78
2022/07/20 05:48:11;;;;;;;1078.28;502.45;;;;;;;;;;5111178;28;20380;-79
2022/07/20 05:53:30;;;;;;;1087.82;497.90;;;;;;;;;;5111130;27;20430;-78
2022/07/20 05:55:56;;;;;;;977.97;521.58;;;;;;;;;;5111284;28;20023;-79
2022/07/20 06:00:13;;;;;;;996.75;510.23;;;;;;;;;;5110815;27;20465;-76
2022/07/20 06:04:28;;;;;;;1037.85;509.58;;;;;;;;;;5111507;27;20306;-78
2022/07/20 06:06:55;;;;;;;1091.07;500.17;;;;;;;;;;5110784;28;20472;-79
2022/07/20 06:09:21;;;;;;;1101.15;499.00;;;;;;;;;;5111191;28;20027;-78
2022/07/20 06:11:47;;;;;;;2.70;1.20;;;;;;;;;;5110147;28;20375;-78
2022/07/20 06:16:28;;;;;;;2.83;1.40;;;;;;;;;;5111834;27;20400;-79
2022/07/20 06:18:55;;;;;;;2.67;1.58;;;;;;;;;;5104819;28;20477;-76
2022/07/20 06:21:21;;;;;;;2.90;1.55;;;;;;;;;;5101922;28;20060;-78
2022/07/20 06:23:47;;;;;;;2.42;1.17;;;;;;;;;;5102311;28;20024;-79
2022/07/20 06:26:13;;;;;;;2.50;1.15;;;;;;;;;;5111211;28;20028;-79
2022/07/20 06:28:39;;;;;;;2.70;1.38;;;;;;;;;;5126531;28;20510;-79
2022/07/20 06:31:06;;;;;;;4.57;1.50;;;;;;;;;;5111246;28;20099;-79
2022/07/20 06:33:32;;;;;;;2.22;1.27;;;;;;;;;;5127077;28;20483;-79
2022/07/20 06:35:58;;;;;;;2.33;1.30;;;;;;;;;;5110533;28;20476;-82
2022/07/20 06:38:25;;;;;;;2.38;1.17;;;;;;;;;;5126807;28;20451;-80
2022/07/20 06:41:47;;;;;;;2.40;1.17;;;;;;;;;;5111085;27;20388;-80
2022/07/20 06:44:13;;;;;;;1.98;1.20;;;;;;;;;;5111300;28;20020;-80
2022/07/20 06:47:45;;;;;;;7.22;1.90;;;;;;;;;;5112183;27;20404;-78
2022/07/20 06:50:11;;;;;;;4.85;2.08;;;;;;;;;;5134260;28;20415;-77
2022/07/20 06:52:37;;;;;;;3.58;1.50;;;;;;;;;;5110746;28;20047;-80
2022/07/20 06:55:04;;;;;;;3.15;1.50;;;;;;;;;;5109983;28;20020;-76
2022/07/20 06:57:30;;;;;;;4.05;1.80;;;;;;;;;;5109798;28;20020;-78
2022/07/20 06:59:56;;;;;;;2.95;1.65;;;;;;;;;;5111392;28;20023;-77
2022/07/20 07:02:22;;;;;;;2.78;1.50;;;;;;;;;;5111854;28;20532;-76
2022/07/20 07:04:49;;;;;;;2.90;1.50;;;;;;;;;;5111312;28;20031;-76
2022/07/20 07:07:25;;;;;;;3.08;1.60;;;;;;;;;;5116269;28;20028;-76
2022/07/20 07:10:59;;;;;;;2.47;1.23;;;;;;;;;;5090550;27;20502;-79
2022/07/20 07:15:10;;;;;;;3.45;1.77;;;;;;;;;;5107840;27;20473;-75
2022/07/20 07:17:36;;;;;;;3.13;1.63;;;;;;;;;;5110408;28;20032;-76
2022/07/20 07:20:03;;;;;;;4.00;1.80;;;;;;;;;;5110398;28;20026;-76
2022/07/20 07:22:30;;;;;;;3.20;1.75;;;;;;;;;;5105133;28;20379;-77
2022/07/20 07:24:57;;;;;;;3.05;1.40;;;;;;;;;;5090230;28;20089;-75
2022/07/20 07:27:23;;;;;;;4.28;1.65;;;;;;;;;;5091093;28;20094;-76
2022/07/20 07:30:19;;;;;;;3.63;1.75;;;;;;;;;;5107322;27;20442;-72
2022/07/20 07:34:58;;;;;;;2.85;1.60;;;;;;;;;;5068461;28;20415;-76
2022/07/20 07:37:24;;;;;;;4.25;1.55;;;;;;;;;;5069606;28;20033;-77
2022/07/20 07:39:50;;;;;;;5.25;2.65;;;;;;;;;;5068997;28;20017;-78
2022/07/20 07:42:16;;;;;;;4.80;1.77;;;;;;;;;;5069518;28;20524;-78
2022/07/20 07:44:43;;;;;;;3.22;1.48;;;;;;;;;;5067641;28;20047;-77
2022/07/20 07:47:09;;;;;;;3.92;1.80;;;;;;;;;;5065988;28;20119;-78
2022/07/20 07:49:35;;;;;;;3.75;1.75;;;;;;;;;;5067754;28;20554;-75
2022/07/20 07:53:17;;;;;;;4.75;2.15;;;;;;;;;;5106213;27;20540;-76
2022/07/20 07:55:44;;;;;;;2.72;1.55;;;;;;;;;;5107380;28;20038;-78
2022/07/20 07:58:12;;;;;;;2.65;1.70;;;;;;;;;;5089905;28;20020;-78
2022/07/20 08:01:34;;;;;;;2.47;1.40;;;;;;;;;;5110352;27;20884;-77
2022/07/20 08:04:54;;;;;;;4.22;1.58;;;;;;;;;;5111332;27;20392;-76
2022/07/20 08:07:20;;;;;;;5.05;1.80;;;;;;;;;;5110134;28;20428;-78
2022/07/20 08:09:46;;;;;;;2.72;1.30;;;;;;;;;;5110012;28;20468;-78
2022/07/20 08:12:12;;;;;;;3.05;1.45;;;;;;;;;;5108168;28;20039;-81
2022/07/20 08:14:38;;;;;;;8.52;2.88;;;;;;;;;;5096967;28;20035;-79
2022/07/20 08:18:23;;;;;;;2.45;1.55;;;;;;;;;;5108914;27;20393;-79
2022/07/20 08:20:50;;;;;;;4.13;1.48;;;;;;;;;;5106559;28;20032;-78
2022/07/20 08:23:16;;;;;;;2.55;1.38;;;;;;;;;;5107887;28;20495;-79
2022/07/20 08:25:42;;;;;;;3.72;1.55;;;;;;;;;;5107507;28;20024;-79
2022/07/20 08:28:10;;;;;;;3.67;1.65;;;;;;;;;;5108889;28;20024;-79
2022/07/20 08:32:37;;;;;;;7.65;1.70;;;;;;;;;;5109379;27;20393;-78
2022/07/20 08:35:03;;;;;;;2.80;1.70;;;;;;;;;;5107773;28;20597;-80
2022/07/20 08:37:29;;;;;;;2.83;1.50;;;;;;;;;;5110962;28;20024;-80
2022/07/20 08:41:22;;;;;;;3.15;1.45;;;;;;;;;;5109833;27;20393;-80
2022/07/20 08:43:48;;;;;;;2.80;1.50;;;;;;;;;;5109792;28;20028;-81
2022/07/20 08:46:14;;;;;;;3.38;1.50;;;;;;;;;;5111142;28;20104;-79
2022/07/20 08:48:42;;;;;;;4.07;1.60;;;;;;;;;;5111399;28;20020;-80
2022/07/20 08:51:10;;;;;;;2.65;1.30;;;;;;;;;;5111802;28;20024;-80
2022/07/20 08:53:37;;;;;;;4.50;1.80;;;;;;;;;;5111165;28;20020;-80
2022/07/20 08:56:03;;;;;;;4.05;1.30;;;;;;;;;;5111825;28;20026;-80
2022/07/20 08:58:29;;;;;;;4.68;1.50;;;;;;;;;;5111787;28;20500;-78
2022/07/20 09:03:03;;;;;;;2.28;1.50;;;;;;;;;;5104939;27;20400;-79
2022/07/20 09:05:30;;;;;;;5.78;1.42;;;;;;;;;;5084444;28;20060;-78
2022/07/20 09:07:58;;;;;;;4.30;1.52;;;;;;;;;;5092338;28;20024;-77
2022/07/20 09:10:31;;;;;;;2.38;1.40;;;;;;;;;;5091368;28;20122;-80
2022/07/20 09:13:01;;;;;;;2.58;1.63;;;;;;;;;;5089064;28;20383;-78
2022/07/20 09:15:27;;;;;;;4.57;1.67;;;;;;;;;;5091279;28;20012;-79
2022/07/20 09:19:50;;;;;;;2.25;1.50;;;;;;;;;;5111607;27;20401;-79
2022/07/20 09:22:47;;;;;;;5.32;1.48;;;;;;;;;;5110859;28;20107;-80
2022/07/20 09:25:15;;;;;;;2.30;1.30;;;;;;;;;;5109985;28;20026;-80
2022/07/20 09:27:41;;;;;;;3.42;1.60;;;;;;;;;;5110875;28;20134;-81
2022/07/20 09:30:15;;;;;;;2.90;1.52;;;;;;;;;;5111035;28;20095;-78
2022/07/20 09:32:52;;;;;;;2.38;1.35;;;;;;;;;;5111911;28;20023;-81
2022/07/20 09:35:19;;;;;;;1.90;1.20;;;;;;;;;;5110447;28;20024;-80
2022/07/20 09:37:45;;;;;;;2.03;1.20;;;;;;;;;;5108501;28;20077;-79
2022/07/20 09:40:12;;;;;;;1.80;1.30;;;;;;;;;;5107434;28;20015;-80
2022/07/20 09:42:39;;;;;;;2.47;1.40;;;;;;;;;;5094101;28;20059;-80
2022/07/20 09:45:38;;;;;;;3.72;1.30;;;;;;;;;;5095207;28;20012;-78
2022/07/20 09:48:06;;;;;;;5.45;1.58;;;;;;;;;;5067014;28;20052;-80
2022/07/20 09:50:35;;;;;;;4.68;1.40;;;;;;;;;;5089724;28;20028;-79
2022/07/20 09:53:01;;;;;;;3.10;1.80;;;;;;;;;;5091314;28;20028;-81
2022/07/20 09:55:27;;;;;;;2.90;1.40;;;;;;;;;;5091063;28;20033;-80
2022/07/20 09:57:54;;;;;;;6.50;1.40;;;;;;;;;;5101481;28;20391;-79
2022/07/20 10:00:21;;;;;;;5.13;1.20;;;;;;;;;;5109450;28;20032;-80
2022/07/20 10:02:49;;;;;;;3.30;1.10;;;;;;;;;;5112478;28;20028;-81
2022/07/20 10:05:17;;;;;;;5.45;1.35;;;;;;;;;;5110647;28;20424;-81
2022/07/20 10:07:44;;;;;;;5.90;1.45;;;;;;;;;;5109094;28;20031;-81
2022/07/20 10:10:11;;;;;;;2.63;1.20;;;;;;;;;;5110206;28;20454;-81
2022/07/20 10:12:38;;;;;;;3.38;1.40;;;;;;;;;;5108924;28;20484;-81
2022/07/20 10:15:09;;;;;;;3.47;1.40;;;;;;;;;;5108565;28;20065;-80
2022/07/20 10:17:36;;;;;;;2.85;1.23;;;;;;;;;;5108708;28;20399;-78
2022/07/20 10:20:02;;;;;;;2.42;1.30;;;;;;;;;;5109299;28;20035;-79
2022/07/20 10:22:29;;;;;;;2.33;1.17;;;;;;;;;;5109317;28;20024;-81
2022/07/20 10:25:13;;;;;;;2.33;1.02;;;;;;;;;;5109228;28;20027;-80
2022/07/20 10:27:39;;;;;;;2.22;0.98;;;;;;;;;;5110061;28;20024;-78
2022/07/20 10:30:18;;;;;;;2.13;1.27;;;;;;;;;;5100908;28;20052;-80
2022/07/20 10:32:58;;;;;;;6.82;2.55;;;;;;;;;;5098135;28;20020;-81
2022/07/20 10:35:26;;;;;;;1.38;1.02;;;;;;;;;;5098425;28;20027;-81
2022/07/20 10:37:53;;;;;;;3.45;1.70;;;;;;;;;;5098278;28;20032;-81
2022/07/20 10:40:21;;;;;;;3.20;1.30;;;;;;;;;;5096392;28;20544;-78
2022/07/20 10:42:53;;;;;;;1.95;1.02;;;;;;;;;;5098615;28;20082;-80
2022/07/20 10:45:19;;;;;;;2.50;1.08;;;;;;;;;;5098768;28;20040;-80
2022/07/20 10:47:53;;;;;;;2.63;1.15;;;;;;;;;;5098006;28;20032;-80
2022/07/20 10:50:19;;;;;;;1.95;1.20;;;;;;;;;;5096920;28;20028;-78
2022/07/20 10:52:46;;;;;;;1.55;1.10;;;;;;;;;;5097160;28;20095;-78
2022/07/20 10:55:31;;;;;;;2.08;1.10;;;;;;;;;;5095813;28;20024;-78
2022/07/20 10:57:57;;;;;;;1.65;1.17;;;;;;;;;;5094106;28;20047;-81
2022/07/20 11:00:29;;;;;;;1.92;1.00;;;;;;;;;;5077345;28;20115;-84
2022/07/20 11:02:55;;;;;;;;;;;;;;;;;;5084025;28;20069;-82
2022/07/20 11:05:22;;;;;;;4.82;1.20;;;;;;;;;;5081891;28;20317;-82
2022/07/20 11:07:48;;;;;;;2.90;1.25;;;;;;;;;;5083230;28;20024;-82
2022/07/20 11:10:22;;;;;;;2.90;1.20;;;;;;;;;;5083335;28;20499;-82
2022/07/20 11:12:56;;;;;;;1.40;1.10;;;;;;;;;;5078219;28;20087;-81
2022/07/20 11:15:22;;;;;;;2.20;1.10;;;;;;;;;;5072820;28;20021;-75
2022/07/20 11:17:48;;;;;;;2.42;0.90;;;;;;;;;;5072639;28;20044;-75
2022/07/20 11:20:18;;;;;;;1.20;0.90;;;;;;;;;;5073513;28;20102;-74
2022/07/20 11:22:45;;;;;;;2.33;1.10;;;;;;;;;;5072749;28;20025;-75
2022/07/20 11:25:11;;;;;;;1.52;1.00;;;;;;;;;;5073353;28;20435;-75
2022/07/20 11:27:37;;;;;;;2.22;0.95;;;;;;;;;;5071958;28;20357;-75
2022/07/20 11:30:04;;;;;;;4.13;1.33;;;;;;;;;;5072659;28;20100;-75
2022/07/20 11:32:30;;;;;;;3.25;1.20;;;;;;;;;;5073274;28;20025;-76
2022/07/20 11:34:57;;;;;;;1.42;0.82;;;;;;;;;;5071605;28;20120;-76
2022/07/20 11:37:25;;;;;;;1.55;1.10;;;;;;;;;;5072661;28;20066;-76
2022/07/20 11:39:51;;;;;;;2.25;1.00;;;;;;;;;;5071519;28;20514;-75
2022/07/20 11:42:17;;;;;;;1.38;0.90;;;;;;;;;;5072828;28;20025;-76
2022/07/20 11:45:00;;;;;;;1.50;0.98;;;;;;;;;;5074646;28;20039;-76
2022/07/20 11:47:26;;;;;;;1.70;0.82;;;;;;;;;;5074969;28;20024;-76
2022/07/20 11:50:11;;;;;;;1.73;0.80;;;;;;;;;;5073572;28;20020;-76
2022/07/20 11:52:38;;;;;;;1.85;0.80;;;;;;;;;;5073041;28;20052;-75
2022/07/20 11:55:04;;;;;;;5.57;1.08;;;;;;;;;;5074610;28;20028;-75
2022/07/20 11:57:31;;;;;;;1.52;1.10;;;;;;;;;;5074532;28;20032;-75
2022/07/20 11:59:57;;;;;;;1.75;0.80;;;;;;;;;;5074116;28;20025;-75
2022/07/20 12:02:23;;;;;;;3.38;1.48;;;;;;;;;;5074415;28;20025;-75
2022/07/20 12:04:49;;;;;;;2.00;1.05;;;;;;;;;;5074503;28;20024;-74
2022/07/20 12:10:08;;;;;;;1.52;0.85;;;;;;;;;;5074677;28;20499;-74
2022/07/20 12:12:47;;;;;;;1.30;0.82;;;;;;;;;;5072709;28;20027;-74
2022/07/20 12:15:14;;;;;;;1.85;0.95;;;;;;;;;;5074446;28;20028;-74
2022/07/20 12:17:50;;;;;;;2.42;0.77;;;;;;;;;;5074021;28;20397;-74
2022/07/20 12:20:16;;;;;;;1.85;0.90;;;;;;;;;;5072537;28;20115;-74
2022/07/20 12:22:49;;;;;;;2.25;1.08;;;;;;;;;;5072882;28;20025;-75
2022/07/20 12:25:15;;;;;;;7.05;0.80;;;;;;;;;;5074316;28;20028;-75
2022/07/20 12:27:42;;;;;;;2.33;1.00;;;;;;;;;;5073612;28;20025;-74
2022/07/20 12:30:27;;;;;;;1.77;0.77;;;;;;;;;;5073546;28;20020;-74
2022/07/20 12:33:12;;;;;;;2.90;1.13;;;;;;;;;;5072189;28;20044;-76
2022/07/20 12:35:43;;;;;;;1.52;0.90;;;;;;;;;;5072480;28;20386;-75
2022/07/20 12:38:09;;;;;;;1.87;0.77;;;;;;;;;;5073683;28;20036;-74
2022/07/20 12:40:39;;;;;;;1.60;0.95;;;;;;;;;;5070820;28;20505;-75
2022/07/20 12:43:26;;;;;;;1.33;0.75;;;;;;;;;;5073398;28;20032;-76
2022/07/20 12:45:52;;;;;;;1.55;0.82;;;;;;;;;;5066779;28;20036;-75
2022/07/20 12:48:18;;;;;;;2.90;1.30;;;;;;;;;;5073304;28;20139;-75
2022/07/20 12:50:44;;;;;;;1.83;0.90;;;;;;;;;;5072411;28;20020;-75
2022/07/20 12:53:10;;;;;;;1.40;0.80;;;;;;;;;;5070034;28;20029;-74
2022/07/20 12:55:37;;;;;;;1.50;0.90;;;;;;;;;;5073219;28;20096;-75
2022/07/20 12:58:03;;;;;;;3.63;0.95;;;;;;;;;;5073507;28;20043;-75
2022/07/20 13:00:29;;;;;;;2.25;0.90;;;;;;;;;;5073606;28;20461;-75
2022/07/20 13:02:55;;;;;;;2.63;0.82;;;;;;;;;;5073186;28;20028;-76
2022/07/20 13:05:21;;;;;;;1.77;1.02;;;;;;;;;;5073409;28;20059;-76
2022/07/20 13:07:47;;;;;;;0.98;0.85;;;;;;;;;;5073508;28;20027;-75
2022/07/20 13:10:16;;;;;;;2.38;0.88;;;;;;;;;;5073058;28;20028;-75
2022/07/20 13:12:43;;;;;;;3.13;1.08;;;;;;;;;;5073621;28;20028;-75
2022/07/20 13:15:09;;;;;;;2.60;1.05;;;;;;;;;;5073055;28;20495;-75
2022/07/20 13:17:36;;;;;;;1.70;0.98;;;;;;;;;;5073122;28;20508;-76
2022/07/20 13:20:04;;;;;;;2.72;0.90;;;;;;;;;;5072031;28;20024;-75
2022/07/20 13:22:30;;;;;;;3.53;1.00;;;;;;;;;;5072957;28;20032;-76
2022/07/20 13:24:56;;;;;;;1.60;0.80;;;;;;;;;;5073273;28;20570;-76
2022/07/20 13:27:23;;;;;;;1.00;0.77;;;;;;;;;;5071988;28;20158;-75
2022/07/20 13:29:49;;;;;;;3.17;0.90;;;;;;;;;;5073095;28;20036;-74
2022/07/20 13:32:15;;;;;;;3.25;1.20;;;;;;;;;;5073207;28;20021;-76
2022/07/20 13:34:41;;;;;;;2.75;0.80;;;;;;;;;;5073425;28;20111;-74
2022/07/20 13:37:07;;;;;;;1.67;0.85;;;;;;;;;;5071494;28;20214;-74
2022/07/20 13:39:33;;;;;;;1.55;0.82;;;;;;;;;;5073373;28;20039;-75
2022/07/20 13:42:00;;;;;;;2.28;1.30;;;;;;;;;;5071849;28;20135;-75
2022/07/20 13:44:26;;;;;;;2.08;0.82;;;;;;;;;;5071554;28;20024;-75
2022/07/20 13:46:52;;;;;;;2.72;1.20;;;;;;;;;;5073441;28;20032;-74
2022/07/20 13:49:18;;;;;;;6.38;1.10;;;;;;;;;;5073313;28;20020;-75
2022/07/20 13:51:45;;;;;;;1.38;0.90;;;;;;;;;;5071401;28;20426;-75
2022/07/20 13:54:11;;;;;;;1.67;0.73;;;;;;;;;;5073068;28;20029;-75
2022/07/20 13:56:37;;;;;;;6.75;1.73;;;;;;;;;;5072938;28;20036;-75
2022/07/20 13:59:03;;;;;;;1.83;0.95;;;;;;;;;;5072449;28;20073;-74
2022/07/20 14:01:29;;;;;;;2.30;1.25;;;;;;;;;;5072882;28;20017;-76
2022/07/20 14:03:55;;;;;;;1.60;0.70;;;;;;;;;;5071579;28;20062;-75
2022/07/20 14:06:21;;;;;;;2.95;0.98;;;;;;;;;;5074944;28;20025;-76
2022/07/20 14:08:48;;;;;;;2.42;0.90;;;;;;;;;;5075374;28;20024;-75
2022/07/20 14:11:14;;;;;;;4.88;1.10;;;;;;;;;;5076694;28;20028;-75
2022/07/20 14:13:40;;;;;;;2.47;1.13;;;;;;;;;;5076178;28;20380;-75
2022/07/20 14:16:06;;;;;;;1.15;0.85;;;;;;;;;;5075152;28;20024;-74
2022/07/20 14:18:33;;;;;;;2.10;0.80;;;;;;;;;;5075756;28;20149;-74
2022/07/20 14:20:59;;;;;;;1.23;0.88;;;;;;;;;;5076503;28;20025;-75
2022/07/20 14:23:25;;;;;;;1.63;0.88;;;;;;;;;;5076416;28;20550;-75
2022/07/20 14:25:52;;;;;;;3.15;1.38;;;;;;;;;;5074662;28;20016;-75
2022/07/20 14:28:18;;;;;;;2.22;1.20;;;;;;;;;;5076296;28;20033;-74
2022/07/20 14:30:44;;;;;;;2.03;1.15;;;;;;;;;;5076473;28;20044;-75
2022/07/20 14:33:11;;;;;;;1.63;0.85;;;;;;;;;;5075691;28;20485;-75
2022/07/20 14:35:38;;;;;;;1.00;0.88;;;;;;;;;;5076246;28;20067;-76
2022/07/20 14:38:04;;;;;;;2.17;1.05;;;;;;;;;;5076008;28;20028;-75
2022/07/20 14:40:30;;;;;;;1.08;0.80;;;;;;;;;;5074444;28;20139;-76
2022/07/20 14:42:56;;;;;;;2.58;1.00;;;;;;;;;;5076103;28;20381;-75
2022/07/20 14:45:23;;;;;;;0.75;0.65;;;;;;;;;;5075857;28;20033;-75
2022/07/20 14:47:49;;;;;;;3.00;1.25;;;;;;;;;;5074210;28;20067;-75
2022/07/20 14:50:15;;;;;;;1.40;1.05;;;;;;;;;;5075812;28;20048;-74
2022/07/20 14:52:41;;;;;;;5.25;1.00;;;;;;;;;;5075816;28;20052;-75
2022/07/20 14:55:08;;;;;;;1.20;0.75;;;;;;;;;;5075497;28;20047;-75
2022/07/20 14:57:34;;;;;;;4.05;1.05;;;;;;;;;;5075637;28;20093;-75
2022/07/20 15:00:00;;;;;;;2.00;0.95;;;;;;;;;;5075677;28;20048;-75
2022/07/20 15:02:26;;;;;;;1.90;0.90;;;;;;;;;;5075230;28;20017;-75
2022/07/20 15:04:54;;;;;;;2.00;1.13;;;;;;;;;;5075709;28;20096;-75
2022/07/20 15:07:20;;;;;;;1.35;0.63;;;;;;;;;;5075602;28;20020;-76
2022/07/20 15:09:47;;;;;;;1.17;0.75;;;;;;;;;;5075165;28;20024;-75
2022/07/20 15:12:13;;;;;;;4.10;1.15;;;;;;;;;;5075441;28;20078;-75
2022/07/20 15:14:39;;;;;;;1.58;0.85;;;;;;;;;;5075069;28;20036;-75
2022/07/20 15:17:05;;;;;;;1.67;0.82;;;;;;;;;;5075164;28;20024;-74
2022/07/20 15:19:32;;;;;;;2.15;1.20;;;;;;;;;;5075250;28;20063;-75
2022/07/20 15:21:58;;;;;;;1.50;0.82;;;;;;;;;;5073683;28;20023;-74
2022/07/20 15:24:24;;;;;;;2.13;0.88;;;;;;;;;;5075359;28;20461;-74
2022/07/20 15:26:50;;;;;;;13.70;1.17;;;;;;;;;;5075223;28;20388;-75
2022/07/20 15:29:16;;;;;;;2.40;1.00;;;;;;;;;;5074765;28;20412;-75
2022/07/20 15:31:43;;;;;;;1.88;1.00;;;;;;;;;;5075056;28;20104;-75
2022/07/20 15:34:09;;;;;;;2.50;1.00;;;;;;;;;;5073693;28;20484;-76
2022/07/20 15:36:35;;;;;;;1.23;0.70;;;;;;;;;;5074658;28;20107;-75
2022/07/20 15:39:01;;;;;;;1.90;1.10;;;;;;;;;;5074782;28;20083;-76
2022/07/20 15:41:27;;;;;;;1.52;1.00;;;;;;;;;;5073655;28;20020;-75
2022/07/20 15:43:53;;;;;;;1.63;0.80;;;;;;;;;;5074514;28;20031;-75
2022/07/20 15:46:19;;;;;;;4.22;1.02;;;;;;;;;;5074822;28;20013;-76
2022/07/20 15:48:46;;;;;;;5.32;0.90;;;;;;;;;;5074826;28;20100;-75
2022/07/20 15:51:13;;;;;;;2.22;1.38;;;;;;;;;;5074317;28;20020;-76
2022/07/20 15:53:39;;;;;;;4.93;1.30;;;;;;;;;;5074848;28;20033;-74
2022/07/20 15:56:08;;;;;;;2.40;0.90;;;;;;;;;;5074658;28;20024;-74
2022/07/20 15:58:35;;;;;;;2.15;0.90;;;;;;;;;;5073005;28;20492;-74
2022/07/20 16:01:01;;;;;;;1.35;0.93;;;;;;;;;;5074455;28;20489;-74
2022/07/20 16:03:28;;;;;;;3.35;0.93;;;;;;;;;;5074354;28;20040;-73
2022/07/20 16:05:54;;;;;;;2.45;0.90;;;;;;;;;;5074003;28;20103;-75
2022/07/20 16:08:20;;;;;;;2.50;1.00;;;;;;;;;;5073018;28;20119;-74
2022/07/20 16:10:47;;;;;;;2.38;1.20;;;;;;;;;;5074309;28;20082;-74
2022/07/20 16:13:13;;;;;;;5.32;0.98;;;;;;;;;;5073852;28;20029;-75
2022/07/20 16:15:39;;;;;;;3.38;1.10;;;;;;;;;;5074125;28;20095;-74
2022/07/20 16:18:05;;;;;;;3.95;1.30;;;;;;;;;;5073434;28;20493;-74
2022/07/20 16:20:32;;;;;;;2.97;1.10;;;;;;;;;;5073922;28;20024;-75
2022/07/20 16:22:58;;;;;;;3.70;1.10;;;;;;;;;;5074053;28;20469;-74
2022/07/20 16:25:24;;;;;;;1.20;0.90;;;;;;;;;;5073565;28;20020;-74
2022/07/20 16:27:51;;;;;;;4.10;1.33;;;;;;;;;;5073470;28;20031;-76
2022/07/20 16:30:17;;;;;;;2.10;1.20;;;;;;;;;;5073983;28;20048;-75
2022/07/20 16:32:44;;;;;;;2.40;1.30;;;;;;;;;;5073422;28;20390;-76
2022/07/20 16:35:11;;;;;;;2.20;0.98;;;;;;;;;;5073832;28;20422;-75
2022/07/20 16:37:37;;;;;;;2.20;1.15;;;;;;;;;;5073888;28;20099;-73